sensor_id;sensor_type;location;lat;lon;timestamp;temperature;humidity
28767;DHT22;15921;52.034;20.650;2022-12-18T00:01:03;-3.20;99.90
28767;DHT22;15921;52.034;20.650;2022-12-18T00:03:33;-3.20;99.90
28767;DHT22;15921;52.034;20.650;2022-12-18T00:05:58;-3.20;99.90
28767;DHT22;15921;52.034;20.650;2022-12-18T00:08:24;-3.20;99.90
28767;DHT22;15921;52.034;20.650;2022-12-18T00:10:50;-3.20;99.90
28767;DHT22;15921;52.034;20.650;2022-12-18T00:13:15;-3.10;99.90
28767;DHT22;15921;52.034;20.650;2022-12-18T00:15:41;-3.10;99.90
28767;DHT22;15921;52.034;20.650;2022-12-18T00:18:07;-3.20;99.90
28767;DHT22;15921;52.034;20.650;2022-12-18T00:20:39;-3.20;99.90
28767;DHT22;15921;52.034;20.650;2022-12-18T00:23:05;-3.20;99.90
28767;DHT22;15921;52.034;20.650;2022-12-18T00:25:35;-3.20;99.90
28767;DHT22;15921;52.034;20.650;2022-12-18T00:28:04;-3.20;99.90
28767;DHT22;15921;52.034;20.650;2022-12-18T00:30:30;-3.20;99.90
28767;DHT22;15921;52.034;20.650;2022-12-18T00:32:55;-3.20;99.90
28767;DHT22;15921;52.034;20.650;2022-12-18T00:35:21;-3.20;99.90
28767;DHT22;15921;52.034;20.650;2022-12-18T00:37:47;-3.20;99.90
28767;DHT22;15921;52.034;20.650;2022-12-18T00:40:13;-3.10;99.90
28767;DHT22;15921;52.034;20.650;2022-12-18T00:42:38;-3.10;99.90
28767;DHT22;15921;52.034;20.650;2022-12-18T00:45:29;-3.20;99.90
28767;DHT22;15921;52.034;20.650;2022-12-18T00:47:56;-3.20;99.90
28767;DHT22;15921;52.034;20.650;2022-12-18T00:50:23;-3.20;99.90
28767;DHT22;15921;52.034;20.650;2022-12-18T00:52:50;-3.30;99.90
28767;DHT22;15921;52.034;20.650;2022-12-18T00:55:16;-3.30;99.90
28767;DHT22;15921;52.034;20.650;2022-12-18T00:57:41;-3.30;99.90
28767;DHT22;15921;52.034;20.650;2022-12-18T01:00:11;-3.30;99.90
28767;DHT22;15921;52.034;20.650;2022-12-18T01:02:37;-3.20;99.90
28767;DHT22;15921;52.034;20.650;2022-12-18T01:05:03;-3.20;99.90
28767;DHT22;15921;52.034;20.650;2022-12-18T01:07:29;-3.20;99.90
28767;DHT22;15921;52.034;20.650;2022-12-18T01:09:55;-3.20;99.90
28767;DHT22;15921;52.034;20.650;2022-12-18T01:12:21;-3.20;99.90
28767;DHT22;15921;52.034;20.650;2022-12-18T01:14:46;-3.10;99.90
28767;DHT22;15921;52.034;20.650;2022-12-18T01:17:12;-3.10;99.90
28767;DHT22;15921;52.034;20.650;2022-12-18T01:19:38;-3.10;99.90
28767;DHT22;15921;52.034;20.650;2022-12-18T01:22:03;-3.20;99.90
28767;DHT22;15921;52.034;20.650;2022-12-18T01:24:29;-3.20;99.90
28767;DHT22;15921;52.034;20.650;2022-12-18T01:26:54;-3.10;99.90
28767;DHT22;15921;52.034;20.650;2022-12-18T01:29:22;-3.10;99.90
28767;DHT22;15921;52.034;20.650;2022-12-18T01:31:48;-3.10;99.90
28767;DHT22;15921;52.034;20.650;2022-12-18T01:34:13;-3.10;99.90
28767;DHT22;15921;52.034;20.650;2022-12-18T01:36:39;-3.10;99.90
28767;DHT22;15921;52.034;20.650;2022-12-18T01:39:11;-3.00;99.90
28767;DHT22;15921;52.034;20.650;2022-12-18T01:41:38;-3.00;99.90
28767;DHT22;15921;52.034;20.650;2022-12-18T01:47:30;-3.00;99.90
28767;DHT22;15921;52.034;20.650;2022-12-18T01:49:59;-2.90;99.90
28767;DHT22;15921;52.034;20.650;2022-12-18T01:52:29;-2.90;99.90
28767;DHT22;15921;52.034;20.650;2022-12-18T01:54:57;-2.90;99.90
28767;DHT22;15921;52.034;20.650;2022-12-18T01:57:23;-2.90;99.90
28767;DHT22;15921;52.034;20.650;2022-12-18T01:59:52;-3.00;99.90
28767;DHT22;15921;52.034;20.650;2022-12-18T02:02:20;-3.00;99.90
28767;DHT22;15921;52.034;20.650;2022-12-18T02:04:46;-3.00;99.90
28767;DHT22;15921;52.034;20.650;2022-12-18T02:09:48;-3.10;99.90
28767;DHT22;15921;52.034;20.650;2022-12-18T02:17:24;-3.10;99.90
28767;DHT22;15921;52.034;20.650;2022-12-18T02:28:23;-3.20;99.90
28767;DHT22;15921;52.034;20.650;2022-12-18T02:30:53;-3.20;99.90
28767;DHT22;15921;52.034;20.650;2022-12-18T02:33:24;-3.20;99.90
28767;DHT22;15921;52.034;20.650;2022-12-18T02:35:52;-3.20;99.90
28767;DHT22;15921;52.034;20.650;2022-12-18T02:38:19;-3.20;99.90
28767;DHT22;15921;52.034;20.650;2022-12-18T02:40:46;-3.20;99.90
28767;DHT22;15921;52.034;20.650;2022-12-18T02:43:14;-3.20;99.90
28767;DHT22;15921;52.034;20.650;2022-12-18T02:45:48;-3.20;99.90
28767;DHT22;15921;52.034;20.650;2022-12-18T02:48:16;-3.20;99.90
28767;DHT22;15921;52.034;20.650;2022-12-18T02:50:46;-3.20;99.90
28767;DHT22;15921;52.034;20.650;2022-12-18T02:53:27;-3.20;99.90
28767;DHT22;15921;52.034;20.650;2022-12-18T03:01:15;-3.30;99.90
28767;DHT22;15921;52.034;20.650;2022-12-18T03:06:33;-3.20;99.90
28767;DHT22;15921;52.034;20.650;2022-12-18T03:09:09;-3.30;99.90
28767;DHT22;15921;52.034;20.650;2022-12-18T03:11:39;-3.30;99.90
28767;DHT22;15921;52.034;20.650;2022-12-18T03:14:25;-3.30;99.90
28767;DHT22;15921;52.034;20.650;2022-12-18T03:16:54;-3.30;99.90
28767;DHT22;15921;52.034;20.650;2022-12-18T03:19:25;-3.40;99.90
28767;DHT22;15921;52.034;20.650;2022-12-18T03:21:55;-3.40;99.90
28767;DHT22;15921;52.034;20.650;2022-12-18T03:24:23;-3.40;99.90
28767;DHT22;15921;52.034;20.650;2022-12-18T03:26:52;-3.40;99.90
28767;DHT22;15921;52.034;20.650;2022-12-18T03:29:22;-3.40;99.90
28767;DHT22;15921;52.034;20.650;2022-12-18T03:31:54;-3.40;99.90
28767;DHT22;15921;52.034;20.650;2022-12-18T03:34:28;-3.40;99.90
28767;DHT22;15921;52.034;20.650;2022-12-18T03:36:55;-3.40;99.90
28767;DHT22;15921;52.034;20.650;2022-12-18T03:39:21;-3.40;99.90
28767;DHT22;15921;52.034;20.650;2022-12-18T03:41:55;-3.40;99.90
28767;DHT22;15921;52.034;20.650;2022-12-18T03:50:45;-3.30;99.90
28767;DHT22;15921;52.034;20.650;2022-12-18T03:55:51;-3.30;99.90
28767;DHT22;15921;52.034;20.650;2022-12-18T03:58:20;-3.30;99.90
28767;DHT22;15921;52.034;20.650;2022-12-18T04:00:49;-3.30;99.90
28767;DHT22;15921;52.034;20.650;2022-12-18T04:03:18;-3.30;99.90
28767;DHT22;15921;52.034;20.650;2022-12-18T04:05:45;-3.30;99.90
28767;DHT22;15921;52.034;20.650;2022-12-18T04:08:12;-3.30;99.90
28767;DHT22;15921;52.034;20.650;2022-12-18T04:10:38;-3.30;99.90
28767;DHT22;15921;52.034;20.650;2022-12-18T04:13:04;-3.30;99.90
28767;DHT22;15921;52.034;20.650;2022-12-18T04:15:33;-3.30;99.90
28767;DHT22;15921;52.034;20.650;2022-12-18T04:17:59;-3.30;99.90
28767;DHT22;15921;52.034;20.650;2022-12-18T04:20:25;-3.30;99.90
28767;DHT22;15921;52.034;20.650;2022-12-18T04:22:51;-3.40;99.90
28767;DHT22;15921;52.034;20.650;2022-12-18T04:25:16;-3.30;99.90
28767;DHT22;15921;52.034;20.650;2022-12-18T04:27:42;-3.30;99.90
28767;DHT22;15921;52.034;20.650;2022-12-18T04:30:08;-3.40;99.90
28767;DHT22;15921;52.034;20.650;2022-12-18T04:32:34;-3.40;99.90
28767;DHT22;15921;52.034;20.650;2022-12-18T04:35:00;-3.40;99.90
28767;DHT22;15921;52.034;20.650;2022-12-18T04:37:25;-3.40;99.90
28767;DHT22;15921;52.034;20.650;2022-12-18T04:39:51;-3.40;99.90
28767;DHT22;15921;52.034;20.650;2022-12-18T04:42:17;-3.40;99.90
28767;DHT22;15921;52.034;20.650;2022-12-18T04:44:42;-3.40;99.90
28767;DHT22;15921;52.034;20.650;2022-12-18T04:47:08;-3.50;99.90
28767;DHT22;15921;52.034;20.650;2022-12-18T04:49:34;-3.50;99.90
28767;DHT22;15921;52.034;20.650;2022-12-18T04:51:59;-3.50;99.90
28767;DHT22;15921;52.034;20.650;2022-12-18T04:54:25;-3.50;99.90
28767;DHT22;15921;52.034;20.650;2022-12-18T04:56:51;-3.60;99.90
28767;DHT22;15921;52.034;20.650;2022-12-18T04:59:16;-3.60;99.90
28767;DHT22;15921;52.034;20.650;2022-12-18T05:01:42;-3.60;99.90
28767;DHT22;15921;52.034;20.650;2022-12-18T05:04:08;-3.50;99.90
28767;DHT22;15921;52.034;20.650;2022-12-18T05:06:33;-3.50;99.90
28767;DHT22;15921;52.034;20.650;2022-12-18T05:08:59;-3.50;99.90
28767;DHT22;15921;52.034;20.650;2022-12-18T05:11:25;-3.50;99.90
28767;DHT22;15921;52.034;20.650;2022-12-18T05:13:50;-3.50;99.90
28767;DHT22;15921;52.034;20.650;2022-12-18T05:16:16;-3.50;99.90
28767;DHT22;15921;52.034;20.650;2022-12-18T05:18:42;-3.50;99.90
28767;DHT22;15921;52.034;20.650;2022-12-18T05:21:08;-3.50;99.90
28767;DHT22;15921;52.034;20.650;2022-12-18T05:23:37;-3.50;99.90
28767;DHT22;15921;52.034;20.650;2022-12-18T05:26:05;-3.50;99.90
28767;DHT22;15921;52.034;20.650;2022-12-18T05:28:33;-3.50;99.90
28767;DHT22;15921;52.034;20.650;2022-12-18T05:31:00;-3.50;99.90
28767;DHT22;15921;52.034;20.650;2022-12-18T05:33:30;-3.60;99.90
28767;DHT22;15921;52.034;20.650;2022-12-18T05:35:58;-3.60;99.90
28767;DHT22;15921;52.034;20.650;2022-12-18T05:38:25;-3.60;99.90
28767;DHT22;15921;52.034;20.650;2022-12-18T05:40:52;-3.60;99.90
28767;DHT22;15921;52.034;20.650;2022-12-18T05:43:19;-3.60;99.90
28767;DHT22;15921;52.034;20.650;2022-12-18T05:45:47;-3.60;99.90
28767;DHT22;15921;52.034;20.650;2022-12-18T05:48:13;-3.70;99.90
28767;DHT22;15921;52.034;20.650;2022-12-18T05:50:41;-3.70;99.90
28767;DHT22;15921;52.034;20.650;2022-12-18T05:53:08;-3.70;99.90
28767;DHT22;15921;52.034;20.650;2022-12-18T05:55:34;-3.70;99.90
28767;DHT22;15921;52.034;20.650;2022-12-18T05:58:01;-3.70;99.90
28767;DHT22;15921;52.034;20.650;2022-12-18T06:00:27;-3.70;99.90
28767;DHT22;15921;52.034;20.650;2022-12-18T06:02:53;-3.80;99.90
28767;DHT22;15921;52.034;20.650;2022-12-18T06:05:18;-3.80;99.90
28767;DHT22;15921;52.034;20.650;2022-12-18T06:07:44;-3.90;99.90
28767;DHT22;15921;52.034;20.650;2022-12-18T06:10:10;-3.80;99.90
28767;DHT22;15921;52.034;20.650;2022-12-18T06:12:37;-3.90;99.90
28767;DHT22;15921;52.034;20.650;2022-12-18T06:15:02;-3.80;99.90
28767;DHT22;15921;52.034;20.650;2022-12-18T06:17:33;-3.90;99.90
28767;DHT22;15921;52.034;20.650;2022-12-18T06:19:59;-3.90;99.90
28767;DHT22;15921;52.034;20.650;2022-12-18T06:22:25;-3.90;99.90
28767;DHT22;15921;52.034;20.650;2022-12-18T06:24:51;-3.80;99.90
28767;DHT22;15921;52.034;20.650;2022-12-18T06:27:17;-3.80;99.90
28767;DHT22;15921;52.034;20.650;2022-12-18T06:29:42;-3.80;99.90
28767;DHT22;15921;52.034;20.650;2022-12-18T06:32:08;-3.80;99.90
28767;DHT22;15921;52.034;20.650;2022-12-18T06:34:36;-3.80;99.90
28767;DHT22;15921;52.034;20.650;2022-12-18T06:37:02;-3.80;99.90
28767;DHT22;15921;52.034;20.650;2022-12-18T06:39:28;-3.80;99.90
28767;DHT22;15921;52.034;20.650;2022-12-18T06:41:53;-3.80;99.90
28767;DHT22;15921;52.034;20.650;2022-12-18T06:44:19;-3.80;99.90
28767;DHT22;15921;52.034;20.650;2022-12-18T06:46:45;-3.80;99.90
28767;DHT22;15921;52.034;20.650;2022-12-18T06:49:11;-3.80;99.90
28767;DHT22;15921;52.034;20.650;2022-12-18T06:51:37;-3.80;99.90
28767;DHT22;15921;52.034;20.650;2022-12-18T06:54:02;-3.70;99.90
28767;DHT22;15921;52.034;20.650;2022-12-18T06:56:29;-3.70;99.90
28767;DHT22;15921;52.034;20.650;2022-12-18T06:58:54;-3.70;99.90
28767;DHT22;15921;52.034;20.650;2022-12-18T07:01:20;-3.70;99.90
28767;DHT22;15921;52.034;20.650;2022-12-18T07:03:46;-3.70;99.90
28767;DHT22;15921;52.034;20.650;2022-12-18T07:06:17;-3.70;99.90
28767;DHT22;15921;52.034;20.650;2022-12-18T07:08:44;-3.70;99.90
28767;DHT22;15921;52.034;20.650;2022-12-18T07:11:10;-3.70;99.90
28767;DHT22;15921;52.034;20.650;2022-12-18T07:13:36;-3.70;99.90
28767;DHT22;15921;52.034;20.650;2022-12-18T07:16:09;-3.70;99.90
28767;DHT22;15921;52.034;20.650;2022-12-18T07:18:35;-3.70;99.90
28767;DHT22;15921;52.034;20.650;2022-12-18T07:21:10;-3.70;99.90
28767;DHT22;15921;52.034;20.650;2022-12-18T07:23:36;-3.60;99.90
28767;DHT22;15921;52.034;20.650;2022-12-18T07:26:03;-3.50;99.90
28767;DHT22;15921;52.034;20.650;2022-12-18T07:28:30;-3.50;99.90
28767;DHT22;15921;52.034;20.650;2022-12-18T07:30:56;-3.50;99.90
28767;DHT22;15921;52.034;20.650;2022-12-18T07:33:21;-3.40;99.90
28767;DHT22;15921;52.034;20.650;2022-12-18T07:35:47;-3.40;99.90
28767;DHT22;15921;52.034;20.650;2022-12-18T07:38:12;-3.40;99.90
28767;DHT22;15921;52.034;20.650;2022-12-18T07:40:38;-3.40;99.90
28767;DHT22;15921;52.034;20.650;2022-12-18T07:43:04;-3.40;99.90
28767;DHT22;15921;52.034;20.650;2022-12-18T07:45:32;-3.40;99.90
28767;DHT22;15921;52.034;20.650;2022-12-18T07:47:58;-3.30;99.90
28767;DHT22;15921;52.034;20.650;2022-12-18T07:50:24;-3.20;99.90
28767;DHT22;15921;52.034;20.650;2022-12-18T07:52:50;-3.10;99.90
28767;DHT22;15921;52.034;20.650;2022-12-18T07:55:15;-3.10;99.90
28767;DHT22;15921;52.034;20.650;2022-12-18T07:57:41;-3.10;99.90
28767;DHT22;15921;52.034;20.650;2022-12-18T08:00:07;-3.10;99.90
28767;DHT22;15921;52.034;20.650;2022-12-18T08:02:33;-3.20;99.90
28767;DHT22;15921;52.034;20.650;2022-12-18T08:04:59;-3.30;99.90
28767;DHT22;15921;52.034;20.650;2022-12-18T08:07:24;-3.30;99.90
28767;DHT22;15921;52.034;20.650;2022-12-18T08:09:50;-3.20;99.90
28767;DHT22;15921;52.034;20.650;2022-12-18T08:12:16;-3.20;99.90
28767;DHT22;15921;52.034;20.650;2022-12-18T08:14:41;-3.10;99.90
28767;DHT22;15921;52.034;20.650;2022-12-18T08:17:07;-3.00;99.90
28767;DHT22;15921;52.034;20.650;2022-12-18T08:19:32;-2.90;99.90
28767;DHT22;15921;52.034;20.650;2022-12-18T08:21:58;-2.90;99.90
28767;DHT22;15921;52.034;20.650;2022-12-18T08:24:24;-2.70;99.90
28767;DHT22;15921;52.034;20.650;2022-12-18T08:26:49;-2.60;99.90
28767;DHT22;15921;52.034;20.650;2022-12-18T08:29:15;-2.60;99.90
28767;DHT22;15921;52.034;20.650;2022-12-18T08:31:41;-2.60;99.90
28767;DHT22;15921;52.034;20.650;2022-12-18T08:34:07;-2.50;99.90
28767;DHT22;15921;52.034;20.650;2022-12-18T08:36:33;-2.50;99.90
28767;DHT22;15921;52.034;20.650;2022-12-18T08:38:59;-2.40;99.90
28767;DHT22;15921;52.034;20.650;2022-12-18T08:41:25;-2.40;99.90
28767;DHT22;15921;52.034;20.650;2022-12-18T08:43:51;-2.40;99.90
28767;DHT22;15921;52.034;20.650;2022-12-18T08:46:38;-2.40;99.90
28767;DHT22;15921;52.034;20.650;2022-12-18T08:49:04;-2.40;99.90
28767;DHT22;15921;52.034;20.650;2022-12-18T08:51:30;-2.30;99.90
28767;DHT22;15921;52.034;20.650;2022-12-18T08:53:56;-2.30;99.90
28767;DHT22;15921;52.034;20.650;2022-12-18T08:56:21;-2.30;99.90
28767;DHT22;15921;52.034;20.650;2022-12-18T08:58:47;-2.30;99.90
28767;DHT22;15921;52.034;20.650;2022-12-18T09:01:13;-2.30;99.90
28767;DHT22;15921;52.034;20.650;2022-12-18T09:03:39;-2.30;99.90
28767;DHT22;15921;52.034;20.650;2022-12-18T09:06:05;-2.30;99.90
28767;DHT22;15921;52.034;20.650;2022-12-18T09:08:34;-2.20;99.90
28767;DHT22;15921;52.034;20.650;2022-12-18T09:11:00;-2.10;99.90
28767;DHT22;15921;52.034;20.650;2022-12-18T09:13:25;-2.00;99.90
28767;DHT22;15921;52.034;20.650;2022-12-18T09:15:52;-1.90;99.90
28767;DHT22;15921;52.034;20.650;2022-12-18T09:18:20;-1.80;99.90
28767;DHT22;15921;52.034;20.650;2022-12-18T09:20:47;-1.80;99.90
28767;DHT22;15921;52.034;20.650;2022-12-18T09:23:13;-1.80;99.90
28767;DHT22;15921;52.034;20.650;2022-12-18T09:25:39;-1.80;99.90
28767;DHT22;15921;52.034;20.650;2022-12-18T09:28:10;-1.80;99.90
28767;DHT22;15921;52.034;20.650;2022-12-18T09:30:41;-1.60;99.90
28767;DHT22;15921;52.034;20.650;2022-12-18T09:33:07;-1.60;99.90
28767;DHT22;15921;52.034;20.650;2022-12-18T09:35:39;-1.50;99.90
28767;DHT22;15921;52.034;20.650;2022-12-18T09:38:05;-1.60;99.90
28767;DHT22;15921;52.034;20.650;2022-12-18T09:40:53;-1.50;99.90
28767;DHT22;15921;52.034;20.650;2022-12-18T09:43:39;-1.40;99.90
28767;DHT22;15921;52.034;20.650;2022-12-18T09:46:11;-1.30;99.90
28767;DHT22;15921;52.034;20.650;2022-12-18T09:48:44;-1.20;99.90
28767;DHT22;15921;52.034;20.650;2022-12-18T09:51:28;-1.10;99.90
28767;DHT22;15921;52.034;20.650;2022-12-18T09:54:12;-1.10;99.90
28767;DHT22;15921;52.034;20.650;2022-12-18T09:56:42;-1.10;99.90
28767;DHT22;15921;52.034;20.650;2022-12-18T09:59:26;-1.20;99.90
28767;DHT22;15921;52.034;20.650;2022-12-18T10:01:55;-1.10;99.90
28767;DHT22;15921;52.034;20.650;2022-12-18T10:04:21;-1.00;99.90
28767;DHT22;15921;52.034;20.650;2022-12-18T10:10:03;-0.90;99.90
28767;DHT22;15921;52.034;20.650;2022-12-18T10:12:40;-0.90;99.90
28767;DHT22;15921;52.034;20.650;2022-12-18T10:15:58;-1.00;99.90
28767;DHT22;15921;52.034;20.650;2022-12-18T10:21:37;-0.90;99.90
28767;DHT22;15921;52.034;20.650;2022-12-18T10:26:42;-0.80;99.90
28767;DHT22;15921;52.034;20.650;2022-12-18T10:29:12;-0.80;99.90
28767;DHT22;15921;52.034;20.650;2022-12-18T10:31:38;-0.80;99.90
28767;DHT22;15921;52.034;20.650;2022-12-18T10:34:04;-0.80;99.90
28767;DHT22;15921;52.034;20.650;2022-12-18T10:36:29;-0.90;99.90
28767;DHT22;15921;52.034;20.650;2022-12-18T10:41:42;-0.90;99.90
28767;DHT22;15921;52.034;20.650;2022-12-18T10:44:22;-0.90;99.90
28767;DHT22;15921;52.034;20.650;2022-12-18T10:46:54;-0.90;99.90
28767;DHT22;15921;52.034;20.650;2022-12-18T10:49:26;-0.90;99.90
28767;DHT22;15921;52.034;20.650;2022-12-18T10:52:05;-0.90;99.90
28767;DHT22;15921;52.034;20.650;2022-12-18T10:54:34;-1.00;99.90
28767;DHT22;15921;52.034;20.650;2022-12-18T10:59:54;-0.90;99.90
28767;DHT22;15921;52.034;20.650;2022-12-18T11:02:37;-0.90;99.90
28767;DHT22;15921;52.034;20.650;2022-12-18T11:07:49;-0.80;99.90
28767;DHT22;15921;52.034;20.650;2022-12-18T11:10:21;-0.80;99.90
28767;DHT22;15921;52.034;20.650;2022-12-18T11:12:47;-0.80;99.90
28767;DHT22;15921;52.034;20.650;2022-12-18T11:15:40;-0.80;99.90
28767;DHT22;15921;52.034;20.650;2022-12-18T11:18:19;-0.90;99.90
28767;DHT22;15921;52.034;20.650;2022-12-18T11:21:11;-0.90;99.90
28767;DHT22;15921;52.034;20.650;2022-12-18T11:23:50;-0.80;99.90
28767;DHT22;15921;52.034;20.650;2022-12-18T11:26:15;-0.70;99.90
28767;DHT22;15921;52.034;20.650;2022-12-18T11:28:52;-0.70;99.90
28767;DHT22;15921;52.034;20.650;2022-12-18T11:31:32;-0.60;99.90
28767;DHT22;15921;52.034;20.650;2022-12-18T11:36:45;-0.50;99.90
28767;DHT22;15921;52.034;20.650;2022-12-18T11:49:49;-0.60;99.90
28767;DHT22;15921;52.034;20.650;2022-12-18T11:54:46;-0.80;99.90
28767;DHT22;15921;52.034;20.650;2022-12-18T11:57:42;-1.00;99.90
28767;DHT22;15921;52.034;20.650;2022-12-18T12:00:18;-1.00;99.90
28767;DHT22;15921;52.034;20.650;2022-12-18T12:40:13;-0.40;99.90
28767;DHT22;15921;52.034;20.650;2022-12-18T12:43:07;-0.60;99.90
28767;DHT22;15921;52.034;20.650;2022-12-18T12:46:32;-0.80;99.90
28767;DHT22;15921;52.034;20.650;2022-12-18T12:51:19;-1.40;99.90
28767;DHT22;15921;52.034;20.650;2022-12-18T12:53:46;-1.50;99.90
28767;DHT22;15921;52.034;20.650;2022-12-18T12:56:15;-1.50;99.90
28767;DHT22;15921;52.034;20.650;2022-12-18T12:59:21;-1.60;99.90
28767;DHT22;15921;52.034;20.650;2022-12-18T13:04:58;-1.80;99.90
28767;DHT22;15921;52.034;20.650;2022-12-18T13:07:32;-1.90;99.90
28767;DHT22;15921;52.034;20.650;2022-12-18T13:15:30;-2.10;99.90
28767;DHT22;15921;52.034;20.650;2022-12-18T13:18:23;-2.10;99.90
28767;DHT22;15921;52.034;20.650;2022-12-18T13:20:50;-2.20;99.90
28767;DHT22;15921;52.034;20.650;2022-12-18T13:25:52;-2.40;99.90
28767;DHT22;15921;52.034;20.650;2022-12-18T13:30:59;-2.50;99.90
28767;DHT22;15921;52.034;20.650;2022-12-18T13:38:47;-2.50;99.90
28767;DHT22;15921;52.034;20.650;2022-12-18T13:41:33;-2.50;99.90
28767;DHT22;15921;52.034;20.650;2022-12-18T13:47:26;-2.60;99.90
28767;DHT22;15921;52.034;20.650;2022-12-18T13:49:52;-2.70;99.90
28767;DHT22;15921;52.034;20.650;2022-12-18T13:52:22;-2.70;99.90
28767;DHT22;15921;52.034;20.650;2022-12-18T13:54:54;-2.70;99.90
28767;DHT22;15921;52.034;20.650;2022-12-18T13:57:34;-2.60;99.90
28767;DHT22;15921;52.034;20.650;2022-12-18T14:02:47;-2.70;99.90
28767;DHT22;15921;52.034;20.650;2022-12-18T14:05:32;-2.70;99.90
28767;DHT22;15921;52.034;20.650;2022-12-18T14:08:08;-2.70;99.90
28767;DHT22;15921;52.034;20.650;2022-12-18T14:10:35;-2.70;99.90
28767;DHT22;15921;52.034;20.650;2022-12-18T14:13:08;-2.60;99.90
28767;DHT22;15921;52.034;20.650;2022-12-18T14:15:38;-2.60;99.90
28767;DHT22;15921;52.034;20.650;2022-12-18T14:19:04;-2.60;99.90
28767;DHT22;15921;52.034;20.650;2022-12-18T14:21:29;-2.70;99.90
28767;DHT22;15921;52.034;20.650;2022-12-18T14:24:16;-2.70;99.90
28767;DHT22;15921;52.034;20.650;2022-12-18T14:26:43;-2.80;99.90
28767;DHT22;15921;52.034;20.650;2022-12-18T14:29:30;-2.90;99.90
28767;DHT22;15921;52.034;20.650;2022-12-18T14:32:11;-2.90;99.90
28767;DHT22;15921;52.034;20.650;2022-12-18T14:34:38;-2.90;99.90
28767;DHT22;15921;52.034;20.650;2022-12-18T14:37:04;-2.90;99.90
28767;DHT22;15921;52.034;20.650;2022-12-18T14:39:29;-3.00;99.90
28767;DHT22;15921;52.034;20.650;2022-12-18T14:41:55;-3.10;99.90
28767;DHT22;15921;52.034;20.650;2022-12-18T14:44:21;-3.10;99.90
28767;DHT22;15921;52.034;20.650;2022-12-18T14:46:48;-3.10;99.90
28767;DHT22;15921;52.034;20.650;2022-12-18T14:51:57;-3.30;99.90
28767;DHT22;15921;52.034;20.650;2022-12-18T14:54:25;-3.30;99.90
28767;DHT22;15921;52.034;20.650;2022-12-18T14:57:20;-3.40;99.90
28767;DHT22;15921;52.034;20.650;2022-12-18T14:59:46;-3.40;99.90
28767;DHT22;15921;52.034;20.650;2022-12-18T15:02:25;-3.50;99.90
28767;DHT22;15921;52.034;20.650;2022-12-18T15:07:42;-3.40;99.90
28767;DHT22;15921;52.034;20.650;2022-12-18T15:10:12;-3.40;99.90
28767;DHT22;15921;52.034;20.650;2022-12-18T15:20:58;-3.30;99.90
28767;DHT22;15921;52.034;20.650;2022-12-18T15:23:28;-3.30;99.90
28767;DHT22;15921;52.034;20.650;2022-12-18T15:26:07;-3.40;99.90
28767;DHT22;15921;52.034;20.650;2022-12-18T15:28:49;-3.50;99.90
28767;DHT22;15921;52.034;20.650;2022-12-18T15:33:43;-3.60;99.90
28767;DHT22;15921;52.034;20.650;2022-12-18T15:36:14;-3.60;99.90
28767;DHT22;15921;52.034;20.650;2022-12-18T15:38:41;-3.50;99.90
28767;DHT22;15921;52.034;20.650;2022-12-18T15:41:13;-3.60;99.90
28767;DHT22;15921;52.034;20.650;2022-12-18T15:43:39;-3.60;99.90
28767;DHT22;15921;52.034;20.650;2022-12-18T15:46:09;-3.70;99.90
28767;DHT22;15921;52.034;20.650;2022-12-18T15:48:49;-3.70;99.90
28767;DHT22;15921;52.034;20.650;2022-12-18T15:51:26;-3.70;99.90
28767;DHT22;15921;52.034;20.650;2022-12-18T15:53:56;-3.70;99.90
28767;DHT22;15921;52.034;20.650;2022-12-18T15:56:22;-3.70;99.90
28767;DHT22;15921;52.034;20.650;2022-12-18T15:59:12;-3.70;99.90
28767;DHT22;15921;52.034;20.650;2022-12-18T16:01:38;-3.70;99.90
28767;DHT22;15921;52.034;20.650;2022-12-18T16:04:05;-3.70;99.90
28767;DHT22;15921;52.034;20.650;2022-12-18T16:06:30;-3.70;99.90
28767;DHT22;15921;52.034;20.650;2022-12-18T16:08:56;-3.80;99.90
28767;DHT22;15921;52.034;20.650;2022-12-18T16:11:25;-3.90;99.90
28767;DHT22;15921;52.034;20.650;2022-12-18T16:14:27;-3.90;99.90
28767;DHT22;15921;52.034;20.650;2022-12-18T16:16:58;-4.00;99.90
28767;DHT22;15921;52.034;20.650;2022-12-18T16:19:25;-4.00;99.90
28767;DHT22;15921;52.034;20.650;2022-12-18T16:21:52;-3.90;99.90
28767;DHT22;15921;52.034;20.650;2022-12-18T16:24:20;-3.90;99.90
28767;DHT22;15921;52.034;20.650;2022-12-18T16:26:49;-3.90;99.90
28767;DHT22;15921;52.034;20.650;2022-12-18T16:29:17;-3.90;99.90
28767;DHT22;15921;52.034;20.650;2022-12-18T16:31:44;-4.00;99.90
28767;DHT22;15921;52.034;20.650;2022-12-18T16:36:41;-4.10;99.90
28767;DHT22;15921;52.034;20.650;2022-12-18T16:39:06;-4.10;99.90
28767;DHT22;15921;52.034;20.650;2022-12-18T16:41:32;-4.10;99.90
28767;DHT22;15921;52.034;20.650;2022-12-18T16:43:59;-4.00;99.90
28767;DHT22;15921;52.034;20.650;2022-12-18T16:46:25;-4.00;99.90
28767;DHT22;15921;52.034;20.650;2022-12-18T16:48:51;-4.10;99.90
28767;DHT22;15921;52.034;20.650;2022-12-18T16:51:16;-4.10;99.90
28767;DHT22;15921;52.034;20.650;2022-12-18T16:53:42;-4.20;99.90
28767;DHT22;15921;52.034;20.650;2022-12-18T16:56:07;-4.20;99.90
28767;DHT22;15921;52.034;20.650;2022-12-18T16:58:33;-4.20;99.90
28767;DHT22;15921;52.034;20.650;2022-12-18T17:00:59;-4.30;99.90
28767;DHT22;15921;52.034;20.650;2022-12-18T17:03:25;-4.30;99.90
28767;DHT22;15921;52.034;20.650;2022-12-18T17:05:50;-4.40;99.90
28767;DHT22;15921;52.034;20.650;2022-12-18T17:08:16;-4.50;99.90
28767;DHT22;15921;52.034;20.650;2022-12-18T17:10:42;-4.50;99.90
28767;DHT22;15921;52.034;20.650;2022-12-18T17:13:07;-4.50;99.90
28767;DHT22;15921;52.034;20.650;2022-12-18T17:15:36;-4.50;99.90
28767;DHT22;15921;52.034;20.650;2022-12-18T17:18:02;-4.40;99.90
28767;DHT22;15921;52.034;20.650;2022-12-18T17:20:29;-4.40;99.90
28767;DHT22;15921;52.034;20.650;2022-12-18T17:22:58;-4.50;99.90
28767;DHT22;15921;52.034;20.650;2022-12-18T17:25:23;-4.50;99.90
28767;DHT22;15921;52.034;20.650;2022-12-18T17:27:50;-4.60;99.90
28767;DHT22;15921;52.034;20.650;2022-12-18T17:30:16;-4.60;99.90
28767;DHT22;15921;52.034;20.650;2022-12-18T17:32:41;-4.60;99.90
28767;DHT22;15921;52.034;20.650;2022-12-18T17:35:07;-4.50;99.90
28767;DHT22;15921;52.034;20.650;2022-12-18T17:37:33;-4.50;99.90
28767;DHT22;15921;52.034;20.650;2022-12-18T17:39:58;-4.40;99.90
28767;DHT22;15921;52.034;20.650;2022-12-18T17:42:24;-4.40;99.90
28767;DHT22;15921;52.034;20.650;2022-12-18T17:44:51;-4.40;99.90
28767;DHT22;15921;52.034;20.650;2022-12-18T17:47:17;-4.60;99.90
28767;DHT22;15921;52.034;20.650;2022-12-18T17:49:42;-4.60;99.90
28767;DHT22;15921;52.034;20.650;2022-12-18T17:52:08;-4.80;99.90
28767;DHT22;15921;52.034;20.650;2022-12-18T17:54:34;-4.90;99.90
28767;DHT22;15921;52.034;20.650;2022-12-18T17:57:04;-5.10;99.90
28767;DHT22;15921;52.034;20.650;2022-12-18T17:59:30;-5.20;99.90
28767;DHT22;15921;52.034;20.650;2022-12-18T18:01:55;-5.30;99.90